sensor_id;sensor_type;location;lat;lon;timestamp;P1;durP1;ratioP1;P2;durP2;ratioP2
6135;SDS011;24008;42.664;23.372;2023-11-22T00:01:53;51.50;;;31.00;;
6135;SDS011;24008;42.664;23.372;2023-11-22T00:04:20;49.30;;;30.10;;
6135;SDS011;24008;42.664;23.372;2023-11-22T00:06:48;49.37;;;30.47;;
6135;SDS011;24008;42.664;23.372;2023-11-22T00:09:15;48.87;;;28.47;;
6135;SDS011;24008;42.664;23.372;2023-11-22T00:11:47;46.03;;;28.97;;
6135;SDS011;24008;42.664;23.372;2023-11-22T00:14:14;43.17;;;28.57;;
6135;SDS011;24008;42.664;23.372;2023-11-22T00:16:40;47.07;;;28.57;;
6135;SDS011;24008;42.664;23.372;2023-11-22T00:19:08;46.43;;;28.97;;
6135;SDS011;24008;42.664;23.372;2023-11-22T00:21:34;50.67;;;29.53;;
6135;SDS011;24008;42.664;23.372;2023-11-22T00:24:03;42.37;;;26.87;;
6135;SDS011;24008;42.664;23.372;2023-11-22T00:26:30;43.83;;;27.50;;
6135;SDS011;24008;42.664;23.372;2023-11-22T00:28:57;43.23;;;27.90;;
6135;SDS011;24008;42.664;23.372;2023-11-22T00:31:24;46.90;;;28.37;;
6135;SDS011;24008;42.664;23.372;2023-11-22T00:33:51;43.50;;;26.63;;
6135;SDS011;24008;42.664;23.372;2023-11-22T00:36:18;48.53;;;27.83;;
6135;SDS011;24008;42.664;23.372;2023-11-22T00:38:45;48.20;;;28.13;;
6135;SDS011;24008;42.664;23.372;2023-11-22T00:41:14;41.80;;;26.57;;
6135;SDS011;24008;42.664;23.372;2023-11-22T00:43:40;40.97;;;27.17;;
6135;SDS011;24008;42.664;23.372;2023-11-22T00:46:07;41.90;;;26.67;;
6135;SDS011;24008;42.664;23.372;2023-11-22T00:48:35;43.70;;;27.27;;
6135;SDS011;24008;42.664;23.372;2023-11-22T00:51:02;45.03;;;27.97;;
6135;SDS011;24008;42.664;23.372;2023-11-22T00:53:33;47.27;;;29.03;;
6135;SDS011;24008;42.664;23.372;2023-11-22T00:56:01;51.00;;;28.73;;
6135;SDS011;24008;42.664;23.372;2023-11-22T00:58:29;42.33;;;27.50;;
6135;SDS011;24008;42.664;23.372;2023-11-22T01:00:56;46.63;;;28.07;;
6135;SDS011;24008;42.664;23.372;2023-11-22T01:03:23;42.57;;;27.70;;
6135;SDS011;24008;42.664;23.372;2023-11-22T01:05:50;44.60;;;28.30;;
6135;SDS011;24008;42.664;23.372;2023-11-22T01:08:17;44.10;;;28.27;;
6135;SDS011;24008;42.664;23.372;2023-11-22T01:10:44;43.30;;;27.37;;
6135;SDS011;24008;42.664;23.372;2023-11-22T01:13:12;43.87;;;27.87;;
6135;SDS011;24008;42.664;23.372;2023-11-22T01:15:40;43.67;;;27.53;;
6135;SDS011;24008;42.664;23.372;2023-11-22T01:18:09;41.77;;;27.17;;
6135;SDS011;24008;42.664;23.372;2023-11-22T01:20:36;45.43;;;26.50;;
6135;SDS011;24008;42.664;23.372;2023-11-22T01:23:03;43.13;;;26.17;;
6135;SDS011;24008;42.664;23.372;2023-11-22T01:25:30;42.93;;;26.60;;
6135;SDS011;24008;42.664;23.372;2023-11-22T01:27:58;42.23;;;26.40;;
6135;SDS011;24008;42.664;23.372;2023-11-22T01:30:25;40.20;;;26.33;;
6135;SDS011;24008;42.664;23.372;2023-11-22T01:32:55;40.37;;;26.10;;
6135;SDS011;24008;42.664;23.372;2023-11-22T01:35:21;39.90;;;26.17;;
6135;SDS011;24008;42.664;23.372;2023-11-22T01:37:48;42.93;;;26.90;;
6135;SDS011;24008;42.664;23.372;2023-11-22T01:40:15;38.67;;;24.83;;
6135;SDS011;24008;42.664;23.372;2023-11-22T01:42:44;43.23;;;26.07;;
6135;SDS011;24008;42.664;23.372;2023-11-22T01:45:11;41.90;;;26.40;;
6135;SDS011;24008;42.664;23.372;2023-11-22T01:47:38;42.73;;;26.80;;
6135;SDS011;24008;42.664;23.372;2023-11-22T01:50:07;40.57;;;25.87;;
6135;SDS011;24008;42.664;23.372;2023-11-22T01:52:35;41.67;;;25.60;;
6135;SDS011;24008;42.664;23.372;2023-11-22T01:55:02;34.13;;;24.13;;
6135;SDS011;24008;42.664;23.372;2023-11-22T01:57:30;37.83;;;24.70;;
6135;SDS011;24008;42.664;23.372;2023-11-22T01:59:59;36.43;;;24.93;;
6135;SDS011;24008;42.664;23.372;2023-11-22T02:02:27;38.03;;;24.03;;
6135;SDS011;24008;42.664;23.372;2023-11-22T02:04:54;36.77;;;24.57;;
6135;SDS011;24008;42.664;23.372;2023-11-22T02:07:22;37.43;;;24.63;;
6135;SDS011;24008;42.664;23.372;2023-11-22T02:09:49;40.70;;;26.63;;
6135;SDS011;24008;42.664;23.372;2023-11-22T02:12:18;38.10;;;23.47;;
6135;SDS011;24008;42.664;23.372;2023-11-22T02:14:45;43.47;;;24.83;;
6135;SDS011;24008;42.664;23.372;2023-11-22T02:17:12;38.93;;;25.70;;
6135;SDS011;24008;42.664;23.372;2023-11-22T02:19:39;40.80;;;25.87;;
6135;SDS011;24008;42.664;23.372;2023-11-22T02:22:06;42.67;;;26.83;;
6135;SDS011;24008;42.664;23.372;2023-11-22T02:24:34;43.20;;;26.23;;
6135;SDS011;24008;42.664;23.372;2023-11-22T02:27:01;40.80;;;26.07;;
6135;SDS011;24008;42.664;23.372;2023-11-22T02:29:28;41.07;;;25.73;;
6135;SDS011;24008;42.664;23.372;2023-11-22T02:31:55;41.30;;;26.43;;
6135;SDS011;24008;42.664;23.372;2023-11-22T02:34:22;39.47;;;25.73;;
6135;SDS011;24008;42.664;23.372;2023-11-22T02:36:49;41.87;;;26.67;;
6135;SDS011;24008;42.664;23.372;2023-11-22T02:39:16;41.70;;;25.53;;
6135;SDS011;24008;42.664;23.372;2023-11-22T02:41:44;40.77;;;24.70;;
6135;SDS011;24008;42.664;23.372;2023-11-22T02:44:11;38.67;;;24.83;;
6135;SDS011;24008;42.664;23.372;2023-11-22T02:46:40;38.57;;;25.80;;
6135;SDS011;24008;42.664;23.372;2023-11-22T02:49:07;39.60;;;25.53;;
6135;SDS011;24008;42.664;23.372;2023-11-22T02:51:35;35.90;;;24.20;;
6135;SDS011;24008;42.664;23.372;2023-11-22T02:54:02;38.93;;;25.73;;
6135;SDS011;24008;42.664;23.372;2023-11-22T02:56:29;38.40;;;24.07;;
6135;SDS011;24008;42.664;23.372;2023-11-22T02:58:58;41.37;;;25.10;;
6135;SDS011;24008;42.664;23.372;2023-11-22T03:01:24;39.03;;;25.17;;
6135;SDS011;24008;42.664;23.372;2023-11-22T03:03:52;40.07;;;23.27;;
6135;SDS011;24008;42.664;23.372;2023-11-22T03:06:19;37.20;;;25.30;;
6135;SDS011;24008;42.664;23.372;2023-11-22T03:08:45;38.90;;;25.33;;
6135;SDS011;24008;42.664;23.372;2023-11-22T03:11:13;38.23;;;24.33;;
6135;SDS011;24008;42.664;23.372;2023-11-22T03:13:39;35.83;;;24.73;;
6135;SDS011;24008;42.664;23.372;2023-11-22T03:16:08;36.30;;;23.00;;
6135;SDS011;24008;42.664;23.372;2023-11-22T03:18:35;37.60;;;24.80;;
6135;SDS011;24008;42.664;23.372;2023-11-22T03:21:03;37.53;;;24.87;;
6135;SDS011;24008;42.664;23.372;2023-11-22T03:23:30;37.63;;;24.87;;
6135;SDS011;24008;42.664;23.372;2023-11-22T03:25:57;40.43;;;26.00;;
6135;SDS011;24008;42.664;23.372;2023-11-22T03:28:24;37.83;;;24.97;;
6135;SDS011;24008;42.664;23.372;2023-11-22T03:30:51;40.77;;;26.17;;
6135;SDS011;24008;42.664;23.372;2023-11-22T03:33:19;38.50;;;26.07;;
6135;SDS011;24008;42.664;23.372;2023-11-22T03:35:46;40.53;;;27.13;;
6135;SDS011;24008;42.664;23.372;2023-11-22T03:38:13;44.07;;;28.33;;
6135;SDS011;24008;42.664;23.372;2023-11-22T03:40:40;38.17;;;26.37;;
6135;SDS011;24008;42.664;23.372;2023-11-22T03:43:07;37.93;;;26.23;;
6135;SDS011;24008;42.664;23.372;2023-11-22T03:45:35;41.83;;;26.37;;
6135;SDS011;24008;42.664;23.372;2023-11-22T03:48:02;37.53;;;25.03;;
6135;SDS011;24008;42.664;23.372;2023-11-22T03:50:30;40.90;;;26.23;;
6135;SDS011;24008;42.664;23.372;2023-11-22T03:52:57;40.30;;;24.00;;
6135;SDS011;24008;42.664;23.372;2023-11-22T03:55:24;41.67;;;25.87;;
6135;SDS011;24008;42.664;23.372;2023-11-22T03:57:50;35.90;;;23.37;;
6135;SDS011;24008;42.664;23.372;2023-11-22T04:00:17;37.27;;;24.00;;
6135;SDS011;24008;42.664;23.372;2023-11-22T04:02:45;35.67;;;23.33;;
6135;SDS011;24008;42.664;23.372;2023-11-22T04:05:12;34.33;;;23.50;;
6135;SDS011;24008;42.664;23.372;2023-11-22T04:07:40;38.10;;;23.20;;
6135;SDS011;24008;42.664;23.372;2023-11-22T04:10:07;37.00;;;23.90;;
6135;SDS011;24008;42.664;23.372;2023-11-22T04:12:34;34.17;;;21.83;;
6135;SDS011;24008;42.664;23.372;2023-11-22T04:15:02;39.57;;;23.53;;
6135;SDS011;24008;42.664;23.372;2023-11-22T04:17:31;33.50;;;22.50;;
6135;SDS011;24008;42.664;23.372;2023-11-22T04:19:58;34.70;;;23.27;;
6135;SDS011;24008;42.664;23.372;2023-11-22T04:22:24;34.23;;;23.43;;
6135;SDS011;24008;42.664;23.372;2023-11-22T04:24:53;33.63;;;22.87;;
6135;SDS011;24008;42.664;23.372;2023-11-22T04:27:20;35.50;;;23.83;;
6135;SDS011;24008;42.664;23.372;2023-11-22T04:29:46;35.67;;;23.10;;
6135;SDS011;24008;42.664;23.372;2023-11-22T04:32:13;36.77;;;23.30;;
6135;SDS011;24008;42.664;23.372;2023-11-22T04:34:40;41.90;;;24.83;;
6135;SDS011;24008;42.664;23.372;2023-11-22T04:37:07;37.53;;;23.87;;
6135;SDS011;24008;42.664;23.372;2023-11-22T04:39:34;38.37;;;23.13;;
6135;SDS011;24008;42.664;23.372;2023-11-22T04:42:02;34.73;;;23.80;;
6135;SDS011;24008;42.664;23.372;2023-11-22T04:44:29;33.33;;;23.20;;
6135;SDS011;24008;42.664;23.372;2023-11-22T04:46:57;37.83;;;23.40;;
6135;SDS011;24008;42.664;23.372;2023-11-22T04:49:24;38.27;;;24.80;;
6135;SDS011;24008;42.664;23.372;2023-11-22T04:51:51;36.77;;;23.60;;
6135;SDS011;24008;42.664;23.372;2023-11-22T04:54:18;35.77;;;23.40;;
6135;SDS011;24008;42.664;23.372;2023-11-22T04:56:44;34.53;;;23.03;;
6135;SDS011;24008;42.664;23.372;2023-11-22T04:59:13;35.00;;;22.73;;
6135;SDS011;24008;42.664;23.372;2023-11-22T05:01:40;37.80;;;25.83;;
6135;SDS011;24008;42.664;23.372;2023-11-22T05:04:07;39.77;;;23.43;;
6135;SDS011;24008;42.664;23.372;2023-11-22T05:06:35;38.70;;;24.50;;
6135;SDS011;24008;42.664;23.372;2023-11-22T05:09:02;36.53;;;24.53;;
6135;SDS011;24008;42.664;23.372;2023-11-22T05:11:29;36.23;;;24.33;;
6135;SDS011;24008;42.664;23.372;2023-11-22T05:13:56;37.77;;;23.53;;
6135;SDS011;24008;42.664;23.372;2023-11-22T05:16:24;37.57;;;24.40;;
6135;SDS011;24008;42.664;23.372;2023-11-22T05:18:51;38.23;;;24.33;;
6135;SDS011;24008;42.664;23.372;2023-11-22T05:21:17;34.70;;;22.80;;
6135;SDS011;24008;42.664;23.372;2023-11-22T05:23:44;39.33;;;25.13;;
6135;SDS011;24008;42.664;23.372;2023-11-22T05:26:11;38.60;;;24.57;;
6135;SDS011;24008;42.664;23.372;2023-11-22T05:28:38;37.23;;;24.00;;
6135;SDS011;24008;42.664;23.372;2023-11-22T05:31:04;41.57;;;25.17;;
6135;SDS011;24008;42.664;23.372;2023-11-22T05:33:33;37.77;;;25.70;;
6135;SDS011;24008;42.664;23.372;2023-11-22T05:35:59;36.97;;;25.07;;
6135;SDS011;24008;42.664;23.372;2023-11-22T05:38:26;40.87;;;25.43;;
6135;SDS011;24008;42.664;23.372;2023-11-22T05:40:53;37.00;;;25.20;;
6135;SDS011;24008;42.664;23.372;2023-11-22T05:43:20;37.20;;;24.70;;
6135;SDS011;24008;42.664;23.372;2023-11-22T05:45:50;42.07;;;25.93;;
6135;SDS011;24008;42.664;23.372;2023-11-22T05:48:17;39.30;;;25.93;;
6135;SDS011;24008;42.664;23.372;2023-11-22T05:50:45;40.87;;;25.03;;
6135;SDS011;24008;42.664;23.372;2023-11-22T05:53:13;45.30;;;25.73;;
6135;SDS011;24008;42.664;23.372;2023-11-22T05:55:44;37.70;;;25.37;;
6135;SDS011;24008;42.664;23.372;2023-11-22T05:58:11;38.03;;;24.77;;
6135;SDS011;24008;42.664;23.372;2023-11-22T06:00:41;38.47;;;25.47;;
6135;SDS011;24008;42.664;23.372;2023-11-22T06:03:08;41.03;;;26.10;;
6135;SDS011;24008;42.664;23.372;2023-11-22T06:05:35;39.13;;;25.67;;
6135;SDS011;24008;42.664;23.372;2023-11-22T06:08:03;40.63;;;26.87;;
6135;SDS011;24008;42.664;23.372;2023-11-22T06:10:30;40.83;;;26.50;;
6135;SDS011;24008;42.664;23.372;2023-11-22T06:12:57;40.20;;;26.43;;
6135;SDS011;24008;42.664;23.372;2023-11-22T06:15:24;42.30;;;28.40;;
6135;SDS011;24008;42.664;23.372;2023-11-22T06:17:51;38.93;;;27.00;;
6135;SDS011;24008;42.664;23.372;2023-11-22T06:20:18;42.33;;;27.00;;
6135;SDS011;24008;42.664;23.372;2023-11-22T06:22:46;40.63;;;26.77;;
6135;SDS011;24008;42.664;23.372;2023-11-22T06:25:14;41.97;;;27.10;;
6135;SDS011;24008;42.664;23.372;2023-11-22T06:27:41;44.83;;;27.80;;
6135;SDS011;24008;42.664;23.372;2023-11-22T06:30:08;41.40;;;27.80;;
6135;SDS011;24008;42.664;23.372;2023-11-22T06:32:35;40.77;;;27.73;;
6135;SDS011;24008;42.664;23.372;2023-11-22T06:35:02;41.33;;;29.33;;
6135;SDS011;24008;42.664;23.372;2023-11-22T06:37:31;42.63;;;28.20;;
6135;SDS011;24008;42.664;23.372;2023-11-22T06:39:58;46.77;;;29.20;;
6135;SDS011;24008;42.664;23.372;2023-11-22T06:42:26;44.33;;;28.77;;
6135;SDS011;24008;42.664;23.372;2023-11-22T06:44:53;39.77;;;26.30;;
6135;SDS011;24008;42.664;23.372;2023-11-22T06:47:23;40.87;;;28.20;;
6135;SDS011;24008;42.664;23.372;2023-11-22T06:49:50;40.63;;;29.50;;
6135;SDS011;24008;42.664;23.372;2023-11-22T06:52:17;42.57;;;28.97;;
6135;SDS011;24008;42.664;23.372;2023-11-22T06:54:44;40.77;;;26.50;;
6135;SDS011;24008;42.664;23.372;2023-11-22T06:57:11;41.67;;;27.90;;
6135;SDS011;24008;42.664;23.372;2023-11-22T06:59:40;38.37;;;25.93;;
6135;SDS011;24008;42.664;23.372;2023-11-22T07:02:06;39.40;;;25.27;;
6135;SDS011;24008;42.664;23.372;2023-11-22T07:04:33;43.43;;;27.83;;
6135;SDS011;24008;42.664;23.372;2023-11-22T07:07:00;38.20;;;26.60;;
6135;SDS011;24008;42.664;23.372;2023-11-22T07:09:29;39.67;;;25.23;;
6135;SDS011;24008;42.664;23.372;2023-11-22T07:11:58;36.33;;;25.83;;
6135;SDS011;24008;42.664;23.372;2023-11-22T07:14:24;41.90;;;26.17;;
6135;SDS011;24008;42.664;23.372;2023-11-22T07:16:53;40.40;;;27.67;;
6135;SDS011;24008;42.664;23.372;2023-11-22T07:19:20;37.03;;;25.80;;
6135;SDS011;24008;42.664;23.372;2023-11-22T07:21:48;39.30;;;25.37;;
6135;SDS011;24008;42.664;23.372;2023-11-22T07:24:15;40.53;;;25.53;;
6135;SDS011;24008;42.664;23.372;2023-11-22T07:26:43;39.37;;;25.40;;
6135;SDS011;24008;42.664;23.372;2023-11-22T07:29:10;38.10;;;26.50;;
6135;SDS011;24008;42.664;23.372;2023-11-22T07:31:37;37.23;;;24.90;;
6135;SDS011;24008;42.664;23.372;2023-11-22T07:34:06;41.53;;;28.07;;
6135;SDS011;24008;42.664;23.372;2023-11-22T07:36:34;41.53;;;26.40;;
6135;SDS011;24008;42.664;23.372;2023-11-22T07:39:03;43.10;;;26.83;;
6135;SDS011;24008;42.664;23.372;2023-11-22T07:41:30;39.10;;;26.40;;
6135;SDS011;24008;42.664;23.372;2023-11-22T07:43:56;42.97;;;26.77;;
6135;SDS011;24008;42.664;23.372;2023-11-22T07:46:23;39.03;;;27.03;;
6135;SDS011;24008;42.664;23.372;2023-11-22T07:48:52;40.77;;;27.10;;
6135;SDS011;24008;42.664;23.372;2023-11-22T07:51:20;43.47;;;27.37;;
6135;SDS011;24008;42.664;23.372;2023-11-22T07:53:49;39.47;;;26.87;;
6135;SDS011;24008;42.664;23.372;2023-11-22T07:56:16;36.70;;;24.83;;
6135;SDS011;24008;42.664;23.372;2023-11-22T07:58:43;38.37;;;26.47;;
6135;SDS011;24008;42.664;23.372;2023-11-22T08:01:10;32.17;;;23.37;;
6135;SDS011;24008;42.664;23.372;2023-11-22T08:03:38;38.67;;;24.00;;
6135;SDS011;24008;42.664;23.372;2023-11-22T08:06:10;36.93;;;24.20;;
6135;SDS011;24008;42.664;23.372;2023-11-22T08:08:39;33.43;;;23.03;;
6135;SDS011;24008;42.664;23.372;2023-11-22T08:11:06;33.03;;;22.43;;
6135;SDS011;24008;42.664;23.372;2023-11-22T08:13:40;34.30;;;22.23;;
6135;SDS011;24008;42.664;23.372;2023-11-22T08:16:08;33.93;;;23.10;;
6135;SDS011;24008;42.664;23.372;2023-11-22T08:18:35;34.33;;;23.47;;
6135;SDS011;24008;42.664;23.372;2023-11-22T08:21:02;35.20;;;22.20;;
6135;SDS011;24008;42.664;23.372;2023-11-22T08:23:29;32.07;;;22.73;;
6135;SDS011;24008;42.664;23.372;2023-11-22T08:25:58;36.77;;;23.83;;
6135;SDS011;24008;42.664;23.372;2023-11-22T08:28:25;33.73;;;22.17;;
6135;SDS011;24008;42.664;23.372;2023-11-22T08:30:52;35.77;;;22.77;;
6135;SDS011;24008;42.664;23.372;2023-11-22T08:33:19;32.17;;;22.83;;
6135;SDS011;24008;42.664;23.372;2023-11-22T08:35:47;33.93;;;23.00;;
6135;SDS011;24008;42.664;23.372;2023-11-22T08:38:17;35.73;;;23.93;;
6135;SDS011;24008;42.664;23.372;2023-11-22T08:40:44;36.10;;;24.77;;
6135;SDS011;24008;42.664;23.372;2023-11-22T08:43:12;35.43;;;22.97;;
6135;SDS011;24008;42.664;23.372;2023-11-22T08:45:39;35.50;;;22.83;;
6135;SDS011;24008;42.664;23.372;2023-11-22T08:48:06;38.47;;;23.73;;
6135;SDS011;24008;42.664;23.372;2023-11-22T08:50:33;32.47;;;23.03;;
6135;SDS011;24008;42.664;23.372;2023-11-22T08:53:00;39.23;;;24.87;;
6135;SDS011;24008;42.664;23.372;2023-11-22T08:55:27;33.93;;;22.07;;
6135;SDS011;24008;42.664;23.372;2023-11-22T08:57:54;32.00;;;22.77;;
6135;SDS011;24008;42.664;23.372;2023-11-22T09:00:22;32.07;;;21.87;;
6135;SDS011;24008;42.664;23.372;2023-11-22T09:02:50;32.00;;;22.00;;
6135;SDS011;24008;42.664;23.372;2023-11-22T09:05:17;39.37;;;22.03;;
6135;SDS011;24008;42.664;23.372;2023-11-22T09:07:44;35.40;;;23.00;;
6135;SDS011;24008;42.664;23.372;2023-11-22T09:10:12;33.70;;;23.17;;
6135;SDS011;24008;42.664;23.372;2023-11-22T09:12:39;35.07;;;23.13;;
6135;SDS011;24008;42.664;23.372;2023-11-22T09:15:07;36.07;;;24.80;;
6135;SDS011;24008;42.664;23.372;2023-11-22T09:17:39;50.03;;;33.43;;
6135;SDS011;24008;42.664;23.372;2023-11-22T09:20:09;54.30;;;37.27;;
6135;SDS011;24008;42.664;23.372;2023-11-22T09:22:41;54.97;;;38.30;;
6135;SDS011;24008;42.664;23.372;2023-11-22T09:25:12;54.90;;;38.23;;
6135;SDS011;24008;42.664;23.372;2023-11-22T09:27:41;59.43;;;39.47;;
6135;SDS011;24008;42.664;23.372;2023-11-22T09:30:11;60.53;;;38.70;;
6135;SDS011;24008;42.664;23.372;2023-11-22T09:32:45;57.80;;;38.77;;
6135;SDS011;24008;42.664;23.372;2023-11-22T09:35:12;58.33;;;37.13;;
6135;SDS011;24008;42.664;23.372;2023-11-22T09:37:40;53.77;;;34.47;;
6135;SDS011;24008;42.664;23.372;2023-11-22T09:40:10;47.97;;;32.73;;
6135;SDS011;24008;42.664;23.372;2023-11-22T09:42:39;50.00;;;32.63;;
6135;SDS011;24008;42.664;23.372;2023-11-22T09:45:06;44.00;;;31.87;;
6135;SDS011;24008;42.664;23.372;2023-11-22T09:47:34;38.07;;;28.07;;
6135;SDS011;24008;42.664;23.372;2023-11-22T09:50:02;51.83;;;38.73;;
6135;SDS011;24008;42.664;23.372;2023-11-22T09:52:33;45.37;;;30.53;;
6135;SDS011;24008;42.664;23.372;2023-11-22T09:55:04;41.97;;;28.90;;
6135;SDS011;24008;42.664;23.372;2023-11-22T09:57:31;39.77;;;27.07;;
6135;SDS011;24008;42.664;23.372;2023-11-22T09:59:59;39.73;;;26.37;;
6135;SDS011;24008;42.664;23.372;2023-11-22T10:02:27;39.40;;;26.93;;
6135;SDS011;24008;42.664;23.372;2023-11-22T10:04:54;37.17;;;25.77;;
6135;SDS011;24008;42.664;23.372;2023-11-22T10:07:23;33.17;;;23.97;;
6135;SDS011;24008;42.664;23.372;2023-11-22T10:09:50;34.00;;;24.13;;
6135;SDS011;24008;42.664;23.372;2023-11-22T10:12:18;38.63;;;25.70;;
6135;SDS011;24008;42.664;23.372;2023-11-22T10:14:46;38.60;;;24.20;;
6135;SDS011;24008;42.664;23.372;2023-11-22T10:17:13;37.83;;;25.30;;
6135;SDS011;24008;42.664;23.372;2023-11-22T10:19:42;37.10;;;25.97;;
6135;SDS011;24008;42.664;23.372;2023-11-22T10:22:08;39.93;;;26.87;;
6135;SDS011;24008;42.664;23.372;2023-11-22T10:24:36;39.37;;;26.90;;
6135;SDS011;24008;42.664;23.372;2023-11-22T10:27:03;37.97;;;26.60;;
6135;SDS011;24008;42.664;23.372;2023-11-22T10:29:31;41.23;;;26.60;;
6135;SDS011;24008;42.664;23.372;2023-11-22T10:31:58;38.37;;;26.80;;
6135;SDS011;24008;42.664;23.372;2023-11-22T10:34:25;38.83;;;27.60;;
6135;SDS011;24008;42.664;23.372;2023-11-22T10:36:55;41.43;;;29.00;;
6135;SDS011;24008;42.664;23.372;2023-11-22T10:39:22;41.40;;;28.77;;
6135;SDS011;24008;42.664;23.372;2023-11-22T10:41:52;39.27;;;28.37;;
6135;SDS011;24008;42.664;23.372;2023-11-22T10:44:20;43.73;;;28.50;;
6135;SDS011;24008;42.664;23.372;2023-11-22T10:46:47;38.13;;;27.77;;
6135;SDS011;24008;42.664;23.372;2023-11-22T10:49:16;42.43;;;28.73;;
6135;SDS011;24008;42.664;23.372;2023-11-22T10:51:43;43.40;;;29.73;;
6135;SDS011;24008;42.664;23.372;2023-11-22T10:54:15;43.10;;;27.87;;
6135;SDS011;24008;42.664;23.372;2023-11-22T10:56:43;41.60;;;28.30;;
6135;SDS011;24008;42.664;23.372;2023-11-22T10:59:18;45.93;;;28.30;;
6135;SDS011;24008;42.664;23.372;2023-11-22T11:01:48;40.50;;;28.57;;
6135;SDS011;24008;42.664;23.372;2023-11-22T11:04:23;43.30;;;29.13;;
6135;SDS011;24008;42.664;23.372;2023-11-22T11:06:52;41.53;;;28.70;;
6135;SDS011;24008;42.664;23.372;2023-11-22T11:09:22;40.40;;;28.73;;
6135;SDS011;24008;42.664;23.372;2023-11-22T11:11:52;40.50;;;28.77;;
6135;SDS011;24008;42.664;23.372;2023-11-22T11:14:20;40.67;;;29.67;;
6135;SDS011;24008;42.664;23.372;2023-11-22T11:16:47;44.10;;;29.63;;
6135;SDS011;24008;42.664;23.372;2023-11-22T11:19:20;41.43;;;28.13;;
6135;SDS011;24008;42.664;23.372;2023-11-22T11:21:49;40.80;;;28.53;;
6135;SDS011;24008;42.664;23.372;2023-11-22T11:24:16;41.50;;;28.37;;
6135;SDS011;24008;42.664;23.372;2023-11-22T11:26:47;39.53;;;27.60;;
6135;SDS011;24008;42.664;23.372;2023-11-22T11:29:31;40.77;;;27.63;;
6135;SDS011;24008;42.664;23.372;2023-11-22T11:31:58;38.67;;;27.83;;
6135;SDS011;24008;42.664;23.372;2023-11-22T11:34:26;40.53;;;29.13;;
6135;SDS011;24008;42.664;23.372;2023-11-22T11:36:54;42.30;;;29.83;;
6135;SDS011;24008;42.664;23.372;2023-11-22T11:39:24;44.53;;;29.43;;
6135;SDS011;24008;42.664;23.372;2023-11-22T11:42:07;45.80;;;29.00;;
6135;SDS011;24008;42.664;23.372;2023-11-22T11:44:36;38.23;;;27.97;;
6135;SDS011;24008;42.664;23.372;2023-11-22T11:47:12;39.33;;;27.57;;
6135;SDS011;24008;42.664;23.372;2023-11-22T11:49:39;41.97;;;29.00;;
6135;SDS011;24008;42.664;23.372;2023-11-22T11:52:07;45.53;;;28.33;;
6135;SDS011;24008;42.664;23.372;2023-11-22T11:54:34;40.17;;;27.37;;
6135;SDS011;24008;42.664;23.372;2023-11-22T11:57:01;37.67;;;25.80;;
6135;SDS011;24008;42.664;23.372;2023-11-22T11:59:28;37.30;;;25.33;;
6135;SDS011;24008;42.664;23.372;2023-11-22T12:01:59;38.30;;;25.83;;
6135;SDS011;24008;42.664;23.372;2023-11-22T12:04:26;35.30;;;24.60;;
6135;SDS011;24008;42.664;23.372;2023-11-22T12:06:53;34.17;;;24.80;;
6135;SDS011;24008;42.664;23.372;2023-11-22T12:09:23;39.00;;;24.70;;
6135;SDS011;24008;42.664;23.372;2023-11-22T12:11:50;37.30;;;25.17;;
6135;SDS011;24008;42.664;23.372;2023-11-22T12:14:18;35.47;;;23.83;;
6135;SDS011;24008;42.664;23.372;2023-11-22T12:16:45;34.27;;;22.40;;
6135;SDS011;24008;42.664;23.372;2023-11-22T12:19:22;32.47;;;22.07;;
6135;SDS011;24008;42.664;23.372;2023-11-22T12:21:49;34.83;;;23.20;;
6135;SDS011;24008;42.664;23.372;2023-11-22T12:24:16;34.07;;;23.00;;
6135;SDS011;24008;42.664;23.372;2023-11-22T12:26:44;32.17;;;22.83;;
6135;SDS011;24008;42.664;23.372;2023-11-22T12:29:12;44.33;;;30.77;;
6135;SDS011;24008;42.664;23.372;2023-11-22T12:31:46;46.43;;;29.40;;
6135;SDS011;24008;42.664;23.372;2023-11-22T12:34:15;45.67;;;30.90;;
6135;SDS011;24008;42.664;23.372;2023-11-22T12:36:45;47.50;;;30.80;;
6135;SDS011;24008;42.664;23.372;2023-11-22T12:39:14;50.10;;;34.03;;
6135;SDS011;24008;42.664;23.372;2023-11-22T12:41:43;63.87;;;40.93;;
6135;SDS011;24008;42.664;23.372;2023-11-22T12:44:10;60.43;;;40.10;;
6135;SDS011;24008;42.664;23.372;2023-11-22T12:46:46;58.53;;;35.87;;
6135;SDS011;24008;42.664;23.372;2023-11-22T12:49:20;53.80;;;36.93;;
6135;SDS011;24008;42.664;23.372;2023-11-22T12:51:49;51.40;;;34.67;;
6135;SDS011;24008;42.664;23.372;2023-11-22T12:54:17;51.13;;;35.10;;
6135;SDS011;24008;42.664;23.372;2023-11-22T12:56:46;50.53;;;35.20;;
6135;SDS011;24008;42.664;23.372;2023-11-22T12:59:14;48.60;;;33.90;;
6135;SDS011;24008;42.664;23.372;2023-11-22T13:01:41;53.13;;;35.13;;
6135;SDS011;24008;42.664;23.372;2023-11-22T13:04:08;50.00;;;32.63;;
6135;SDS011;24008;42.664;23.372;2023-11-22T13:06:35;54.77;;;34.20;;
6135;SDS011;24008;42.664;23.372;2023-11-22T13:09:04;53.93;;;32.10;;
6135;SDS011;24008;42.664;23.372;2023-11-22T13:11:31;47.13;;;32.50;;
6135;SDS011;24008;42.664;23.372;2023-11-22T13:13:58;44.77;;;30.20;;
6135;SDS011;24008;42.664;23.372;2023-11-22T13:16:25;45.10;;;30.33;;
6135;SDS011;24008;42.664;23.372;2023-11-22T13:18:52;43.90;;;30.00;;
6135;SDS011;24008;42.664;23.372;2023-11-22T13:21:19;45.10;;;27.33;;
6135;SDS011;24008;42.664;23.372;2023-11-22T13:23:46;41.80;;;27.50;;
6135;SDS011;24008;42.664;23.372;2023-11-22T13:26:15;43.53;;;27.63;;
6135;SDS011;24008;42.664;23.372;2023-11-22T13:28:42;41.50;;;27.60;;
6135;SDS011;24008;42.664;23.372;2023-11-22T13:31:09;39.93;;;26.80;;
6135;SDS011;24008;42.664;23.372;2023-11-22T13:33:37;38.57;;;27.07;;
6135;SDS011;24008;42.664;23.372;2023-11-22T13:36:08;39.23;;;26.13;;
6135;SDS011;24008;42.664;23.372;2023-11-22T13:38:35;46.43;;;27.10;;
6135;SDS011;24008;42.664;23.372;2023-11-22T13:41:04;39.57;;;26.33;;
6135;SDS011;24008;42.664;23.372;2023-11-22T13:43:32;42.97;;;26.43;;
6135;SDS011;24008;42.664;23.372;2023-11-22T13:46:00;38.33;;;25.10;;
6135;SDS011;24008;42.664;23.372;2023-11-22T13:48:27;41.70;;;25.60;;
6135;SDS011;24008;42.664;23.372;2023-11-22T13:50:53;35.20;;;25.00;;
6135;SDS011;24008;42.664;23.372;2023-11-22T13:53:20;35.53;;;25.20;;
6135;SDS011;24008;42.664;23.372;2023-11-22T13:55:47;40.97;;;24.40;;
6135;SDS011;24008;42.664;23.372;2023-11-22T13:58:15;36.47;;;24.37;;
6135;SDS011;24008;42.664;23.372;2023-11-22T14:00:43;33.83;;;23.97;;
6135;SDS011;24008;42.664;23.372;2023-11-22T14:03:13;37.00;;;23.00;;
6135;SDS011;24008;42.664;23.372;2023-11-22T14:05:39;37.53;;;24.60;;
6135;SDS011;24008;42.664;23.372;2023-11-22T14:08:07;36.87;;;24.63;;
6135;SDS011;24008;42.664;23.372;2023-11-22T14:10:34;37.10;;;24.20;;
6135;SDS011;24008;42.664;23.372;2023-11-22T14:13:01;32.23;;;23.27;;
6135;SDS011;24008;42.664;23.372;2023-11-22T14:15:29;37.40;;;23.00;;
6135;SDS011;24008;42.664;23.372;2023-11-22T14:17:57;34.27;;;23.03;;
6135;SDS011;24008;42.664;23.372;2023-11-22T14:20:24;32.83;;;22.80;;
6135;SDS011;24008;42.664;23.372;2023-11-22T14:22:51;32.60;;;21.03;;
6135;SDS011;24008;42.664;23.372;2023-11-22T14:25:18;37.23;;;21.53;;